Terminal Aerodrome Forecast
Issued by NWS

Home | Current Version | Previous Version | Text Only | Print | Product List | Glossary Off
Versions: 1 2 3 4 5 6 7 8 9 10 11 12 13 14 15 16

000
FTUS43 KBIS 310900 AAB
TAFJMS
TAF AMD
KJMS 310920Z 3109/0106 10010KT P6SM VCSH SCT009 OVC090
      TEMPO 3109/3112 P6SM OVC009
     FM311200 13006KT P6SM BKN010
     FM311700 27010KT P6SM BKN030
     FM010000 31009KT P6SM BKN120=

USA.gov is the U.S. government's official web portal to all federal, state and local government web resources and services.